Aeroporto :
LOGIN :

Iscrizione | Disclaimer

   EN    FR    IT 

 










Sommario :    VFR   VFR Marginale   IFR   IFR Intensivo   IFR Molto Intensivo
Visibilità : 
Base nubi : 
>= 8 km
>= 3000ft
5 / 8 km
1000 / 3000 ft
1500m / 5 km
500 / 1000 ft
800 / 1500m
200 / 500 ft
< 800m
< 200 ft
Simboli :   Temporali  Nebbia  Neve Forte  Precipitazioni Forti  Vento > 20 kt
SIGMETs :   Varie  Temporali  Ghiacco  Turbolenza  Onda orograficha  Ceneri Vulcaniche







- Altitudine del aeroporto : 425 ft
- Codice IATA : DTM


EDLW - Dortmund

ULTIMO METAR :
  • 191150Z 04006KT 320V090 CAVOK 22/13 Q1004

METARs OBSOLETI :
  • 191120Z 05005KT 360V120 CAVOK 21/14 Q1004
  • 191050Z 04005KT 320V090 CAVOK 21/14 Q1004
  • 191020Z VRB04KT CAVOK 20/13 Q1004
  • 190950Z 05004KT 360V110 9999 FEW048 19/12 Q1005
  • 190920Z 01004KT 310V070 CAVOK 19/12 Q1005

TAF TAF EDLW
Valido dal 19 a 12 ore il 20 a 12 ore UTC


191100Z 1912/2012 35004KT CAVOK
TEMPO 1912/1921 SHRA BKN030TCU
PROB30
TEMPO 1913/1919 04015G25KT TSRA BKN020CB
BECMG 2000/2003 3000 BR
PROB30
TEMPO 2001/2006 0700 FG OVC002
BECMG 2009/2011 8000
Nessun NOTAM noto per questo aeroporto.



MetMap, La meteo Aeronautica in un colpo d'occhio ! - Copyright ORBIFLY Dicembre 2007 - Disclaimer

ORBIFLY MET'MAP TEAM :

Programmazione e sviluppo : Alexandra Zaïnal
Concezione e sviluppo : Baudouin d'Aumeries
Co-Programmazione e sviluppo : Marc-Olivier Méhu
Supporto tecnico e logistico : Manuel Goepfert
Aiuto per la traduzione : Arnaldo La Scala

Contatto : metmap@orbifly.com




FONTI E CREDITI :

   NOAA